Time;durP1;ratioP1;P1;durP2;ratioP2;P2;SDS_P1;SDS_P2;PMS_P1;PMS_P2;Temp;Humidity;BMP_temperature;BMP_pressure;BME280_temperature;BME280_humidity;BME280_pressure;Samples;Min_cycle;Max_cycle;Signal;HPM_P1;HPM_P2
2022/05/14 00:01:37;;;;;;;6.75;5.22;;;;;;;14.20;82.38;96144.34;5023401;28;20076;-58
2022/05/14 00:04:03;;;;;;;5.55;4.78;;;;;;;14.16;82.76;96157.03;5015629;28;20075;-58
2022/05/14 00:06:30;;;;;;;8.80;5.22;;;;;;;14.15;82.80;96147.44;5020646;28;20084;-59
2022/05/14 00:08:56;;;;;;;8.80;5.60;;;;;;;14.09;83.20;96153.34;5030264;28;20026;-58
2022/05/14 00:14:07;;;;;;;5.00;4.57;;;;;;;14.11;82.27;96151.38;5023835;28;20059;-59
2022/05/14 00:16:35;;;;;;;8.02;5.10;;;;;;;14.12;82.53;96153.06;5018061;28;20025;-58
2022/05/14 00:19:03;;;;;;;7.07;6.38;;;;;;;14.07;83.86;96147.38;5020049;28;20026;-59
2022/05/14 00:21:29;;;;;;;5.72;5.28;;;;;;;14.00;83.86;96147.97;5017719;28;20489;-58
2022/05/14 00:23:55;;;;;;;5.97;5.35;;;;;;;13.98;84.44;96154.41;5023233;28;20032;-58
2022/05/14 00:26:21;;;;;;;6.72;5.38;;;;;;;13.96;83.77;96143.97;5017159;28;20112;-59
2022/05/14 00:28:47;;;;;;;13.45;5.25;;;;;;;14.01;83.36;96147.00;5020566;28;20441;-58
2022/05/14 00:31:13;;;;;;;5.80;5.18;;;;;;;13.98;83.25;96149.13;5020722;28;20018;-59
2022/05/14 00:33:38;;;;;;;5.97;5.30;;;;;;;13.95;83.21;96139.66;5021193;28;20030;-58
2022/05/14 00:36:05;;;;;;;9.10;5.63;;;;;;;13.93;83.36;96139.00;5017584;28;20481;-59
2022/05/14 00:38:30;;;;;;;5.63;5.20;;;;;;;13.87;84.81;96145.72;5019812;28;20030;-58
2022/05/14 00:41:02;;;;;;;6.85;5.20;;;;;;;13.87;84.93;96134.31;5023850;28;20084;-59
2022/05/14 00:43:28;;;;;;;6.43;5.82;;;;;;;13.85;84.50;96139.75;5019898;28;20017;-58
2022/05/14 00:46:01;;;;;;;5.60;5.10;;;;;;;13.83;85.36;96143.53;5025214;28;20080;-59
2022/05/14 00:48:36;;;;;;;6.30;5.32;;;;;;;13.79;85.14;96140.34;5020873;28;20022;-59
2022/05/14 00:51:02;;;;;;;5.50;5.00;;;;;;;13.77;84.91;96138.81;5023051;28;20499;-58
2022/05/14 00:53:34;;;;;;;7.40;6.28;;;;;;;13.75;85.14;96134.53;5018279;28;20033;-59
2022/05/14 00:56:04;;;;;;;5.88;5.38;;;;;;;13.74;85.67;96137.34;5020447;28;20033;-58
2022/05/14 00:58:37;;;;;;;6.63;5.57;;;;;;;13.74;84.96;96135.50;5021663;28;20072;-59
2022/05/14 01:01:03;;;;;;;5.78;5.28;;;;;;;13.76;84.75;96135.38;5022243;28;20045;-59
2022/05/14 01:03:28;;;;;;;6.60;5.28;;;;;;;13.75;84.99;96133.72;5013880;28;20421;-58
2022/05/14 01:05:57;;;;;;;7.63;6.55;;;;;;;13.75;84.91;96131.06;5021450;28;20493;-59
2022/05/14 01:08:23;;;;;;;6.00;5.40;;;;;;;13.79;84.50;96129.78;5020340;28;20377;-58
2022/05/14 01:10:48;;;;;;;8.10;5.38;;;;;;;13.79;84.91;96128.91;5020871;28;20040;-59
2022/05/14 01:13:14;;;;;;;5.75;5.22;;;;;;;13.75;85.62;96126.59;5015627;28;20176;-59
2022/05/14 01:15:40;;;;;;;9.15;8.25;;;;;;;13.73;85.99;96128.56;5024968;28;20476;-58
2022/05/14 01:18:05;;;;;;;8.63;6.60;;;;;;;13.68;85.84;96124.69;5021182;28;20018;-58
2022/05/14 01:20:35;;;;;;;8.02;6.30;;;;;;;13.68;85.23;96116.75;5020985;28;20021;-59
2022/05/14 01:23:29;;;;;;;6.32;5.70;;;;;;;13.64;85.76;96121.53;5020465;28;20070;-58
2022/05/14 01:26:28;;;;;;;6.10;5.57;;;;;;;13.62;85.61;96123.50;5019326;28;20033;-59
2022/05/14 01:29:05;;;;;;;7.63;6.15;;;;;;;13.60;86.29;96123.63;5025397;28;20493;-59
2022/05/14 01:31:31;;;;;;;7.15;5.70;;;;;;;13.59;86.50;96131.72;5019695;28;20026;-59
2022/05/14 01:34:05;;;;;;;6.22;5.75;;;;;;;13.61;86.01;96124.47;5013166;28;20053;-58
2022/05/14 01:36:32;;;;;;;7.38;5.60;;;;;;;13.57;86.10;96123.94;5021420;28;20022;-59
2022/05/14 01:38:57;;;;;;;7.95;6.22;;;;;;;13.58;85.61;96122.09;5020303;28;20126;-59
2022/05/14 01:41:23;;;;;;;7.60;6.82;;;;;;;13.52;86.01;96122.72;5018117;28;20559;-58
2022/05/14 01:43:49;;;;;;;12.55;6.55;;;;;;;13.49;87.73;96123.03;5021524;28;20029;-58
2022/05/14 01:46:15;;;;;;;6.00;5.40;;;;;;;13.47;86.51;96125.81;5026257;28;20430;-58
2022/05/14 01:48:40;;;;;;;5.70;5.20;;;;;;;13.45;86.06;96123.31;5026428;28;20056;-58
2022/05/14 01:51:06;;;;;;;6.47;5.68;;;;;;;13.37;87.01;96125.00;5023461;28;20097;-59
2022/05/14 01:53:32;;;;;;;5.78;5.15;;;;;;;13.36;86.96;96116.22;5020273;28;20065;-58
2022/05/14 01:55:58;;;;;;;6.00;5.50;;;;;;;13.31;86.97;96126.44;5022724;28;20549;-59
2022/05/14 01:58:38;;;;;;;5.63;5.15;;;;;;;13.21;86.84;96125.69;5017749;28;20018;-58
2022/05/14 02:01:14;;;;;;;6.15;5.65;;;;;;;13.18;86.56;96130.28;5026697;28;20073;-59
2022/05/14 02:03:42;;;;;;;5.32;4.93;;;;;;;13.15;87.20;96117.34;5022797;28;20604;-58
2022/05/14 02:06:08;;;;;;;6.50;5.40;;;;;;;13.16;87.05;96124.31;5024087;28;20036;-58
2022/05/14 02:08:34;;;;;;;6.75;5.68;;;;;;;13.09;87.42;96123.22;5024862;28;20553;-58
2022/05/14 02:10:59;;;;;;;5.88;5.30;;;;;;;13.07;87.82;96122.53;5018814;28;20113;-58
2022/05/14 02:13:26;;;;;;;6.93;6.05;;;;;;;13.02;87.80;96115.03;5015664;28;20041;-59
2022/05/14 02:15:52;;;;;;;6.28;5.50;;;;;;;12.98;89.22;96118.13;5020393;28;20413;-58
2022/05/14 02:18:19;;;;;;;6.95;5.88;;;;;;;12.94;88.99;96119.41;5028559;28;20018;-58
2022/05/14 02:20:44;;;;;;;6.28;5.13;;;;;;;12.92;88.65;96113.41;5023220;28;20117;-59
2022/05/14 02:23:10;;;;;;;5.82;5.32;;;;;;;12.90;88.35;96111.75;5020332;28;20124;-58
2022/05/14 02:25:35;;;;;;;6.35;5.85;;;;;;;12.89;88.39;96110.09;5019376;28;20037;-59
2022/05/14 02:28:01;;;;;;;7.57;5.70;;;;;;;12.88;88.88;96107.63;5021408;28;20045;-58
2022/05/14 02:30:26;;;;;;;10.35;6.07;;;;;;;12.83;89.38;96112.50;5030498;28;20021;-58
2022/05/14 02:32:52;;;;;;;6.22;5.18;;;;;;;12.87;88.50;96112.06;5015290;28;20101;-58
2022/05/14 02:35:17;;;;;;;7.57;6.07;;;;;;;12.85;89.35;96105.25;5023037;28;20032;-58
2022/05/14 02:37:43;;;;;;;6.25;5.65;;;;;;;12.83;89.06;96105.41;5022126;28;20132;-58
2022/05/14 02:40:09;;;;;;;6.38;5.72;;;;;;;12.82;89.42;96100.25;5026256;28;20025;-59
2022/05/14 02:42:34;;;;;;;6.13;5.70;;;;;;;12.82;89.43;96108.16;5023361;28;20029;-59
2022/05/14 02:44:59;;;;;;;6.82;5.90;;;;;;;12.85;88.83;96107.91;5027545;28;20033;-58
2022/05/14 02:47:26;;;;;;;7.13;5.57;;;;;;;12.82;89.31;96103.72;5028026;28;20030;-58
2022/05/14 02:49:51;;;;;;;6.97;6.22;;;;;;;12.76;89.81;96101.69;5031743;28;20088;-58
2022/05/14 02:52:17;;;;;;;6.22;5.75;;;;;;;12.74;90.15;96098.34;5025113;28;20026;-58
2022/05/14 02:54:42;;;;;;;9.10;5.45;;;;;;;12.72;90.65;96097.69;5023022;28;20392;-58
2022/05/14 02:57:08;;;;;;;6.40;5.80;;;;;;;12.68;90.30;96098.91;5020263;28;20473;-59
2022/05/14 02:59:34;;;;;;;7.53;5.32;;;;;;;12.65;91.58;96094.78;5020309;28;20072;-59
2022/05/14 03:02:00;;;;;;;6.60;6.05;;;;;;;12.61;91.32;96096.03;5028673;28;20041;-58
2022/05/14 03:04:28;;;;;;;9.77;6.45;;;;;;;12.60;90.98;96097.84;5017602;28;20447;-58
2022/05/14 03:06:55;;;;;;;5.93;5.25;;;;;;;12.58;90.83;96097.16;5026046;28;20072;-59
2022/05/14 03:09:21;;;;;;;7.18;6.38;;;;;;;12.53;91.05;96099.41;5023192;28;20104;-58
2022/05/14 03:11:47;;;;;;;6.88;6.20;;;;;;;12.49;92.02;96099.81;5018142;28;20546;-59
2022/05/14 03:14:13;;;;;;;7.07;6.38;;;;;;;12.42;92.81;96097.78;5022553;28;20022;-59
2022/05/14 03:16:40;;;;;;;8.18;6.15;;;;;;;12.40;92.91;96093.59;5020425;28;20029;-59
2022/05/14 03:19:06;;;;;;;7.65;5.78;;;;;;;12.35;92.73;96091.38;5015621;28;20030;-58
2022/05/14 03:21:31;;;;;;;9.10;6.72;;;;;;;12.30;92.91;96093.63;5025177;28;20021;-58
2022/05/14 03:23:58;;;;;;;6.85;6.30;;;;;;;12.29;92.62;96090.16;5016818;28;20025;-58
2022/05/14 03:26:23;;;;;;;8.45;6.22;;;;;;;12.27;92.93;96094.75;5015773;28;20029;-59
2022/05/14 03:28:48;;;;;;;9.45;6.30;;;;;;;12.32;92.13;96097.78;5023930;28;20026;-59
2022/05/14 03:31:15;;;;;;;10.77;6.53;;;;;;;12.31;93.21;96090.00;5025460;28;20076;-59
2022/05/14 03:33:40;;;;;;;8.02;6.20;;;;;;;12.30;93.34;96094.47;5021318;28;20077;-58
2022/05/14 03:36:06;;;;;;;7.03;6.30;;;;;;;12.28;93.49;96095.56;5024467;28;20504;-59
2022/05/14 03:38:32;;;;;;;7.07;6.38;;;;;;;12.26;93.71;96092.25;5022904;28;20035;-59
2022/05/14 03:40:57;;;;;;;9.60;5.85;;;;;;;12.23;93.54;96092.53;5021571;28;20104;-58
2022/05/14 03:43:22;;;;;;;7.78;6.80;;;;;;;12.26;92.65;96094.88;5021459;28;20025;-58
2022/05/14 03:45:48;;;;;;;6.63;6.00;;;;;;;12.25;92.38;96091.41;5029914;28;20022;-58
2022/05/14 03:48:13;;;;;;;6.25;5.60;;;;;;;12.25;92.56;96101.97;5018271;28;20057;-59
2022/05/14 03:50:39;;;;;;;7.38;6.38;;;;;;;12.29;92.15;96091.97;5021621;28;20067;-59
2022/05/14 03:53:04;;;;;;;7.18;6.30;;;;;;;12.27;92.03;96094.75;5022533;28;20022;-59
2022/05/14 03:55:29;;;;;;;8.95;5.78;;;;;;;12.24;93.46;96099.47;5024174;28;20034;-59
2022/05/14 03:57:55;;;;;;;6.13;5.72;;;;;;;12.19;93.32;96099.91;5021610;28;20033;-58
2022/05/14 04:00:20;;;;;;;6.63;6.03;;;;;;;12.15;94.34;96101.16;5021494;28;20417;-59
2022/05/14 04:02:47;;;;;;;6.75;6.00;;;;;;;12.12;95.62;96104.91;5012992;28;20152;-58
2022/05/14 04:05:13;;;;;;;7.95;6.28;;;;;;;12.11;94.40;96097.16;5022945;28;20033;-59
2022/05/14 04:07:40;;;;;;;7.65;6.85;;;;;;;12.11;94.61;96100.59;5021133;28;20712;-58
2022/05/14 04:10:06;;;;;;;7.28;6.57;;;;;;;12.10;94.35;96104.22;5021349;28;20021;-58
2022/05/14 04:12:31;;;;;;;6.57;6.15;;;;;;;12.15;93.35;96101.16;5021467;28;20512;-59
2022/05/14 04:14:57;;;;;;;6.78;6.13;;;;;;;12.16;93.35;96094.91;5026117;28;20027;-58
2022/05/14 04:17:22;;;;;;;8.02;6.43;;;;;;;12.17;93.55;96109.75;5023072;28;20017;-58
2022/05/14 04:19:47;;;;;;;7.13;6.43;;;;;;;12.16;93.42;96101.03;5019412;28;20029;-58
2022/05/14 04:22:13;;;;;;;6.97;6.18;;;;;;;12.16;93.72;96108.94;5019813;28;20057;-59
2022/05/14 04:24:38;;;;;;;7.57;6.55;;;;;;;12.18;93.48;96108.78;5014654;28;20040;-59
2022/05/14 04:27:04;;;;;;;8.50;7.10;;;;;;;12.19;93.36;96113.09;5016929;28;20400;-58
2022/05/14 04:29:29;;;;;;;7.40;6.80;;;;;;;12.17;93.19;96109.75;5027889;28;20121;-59
2022/05/14 04:31:55;;;;;;;8.30;6.03;;;;;;;12.13;94.28;96108.38;5020580;28;20026;-59
2022/05/14 04:34:20;;;;;;;6.60;6.00;;;;;;;12.06;93.60;96112.56;5021848;28;20040;-59
2022/05/14 04:36:46;;;;;;;8.88;7.05;;;;;;;12.01;94.15;96116.44;5021933;28;20441;-58
2022/05/14 04:39:11;;;;;;;6.78;6.18;;;;;;;11.98;94.48;96115.88;5027933;28;20029;-59
2022/05/14 04:41:36;;;;;;;9.30;6.07;;;;;;;12.02;94.04;96117.28;5017133;28;20034;-58
2022/05/14 04:44:02;;;;;;;6.38;5.80;;;;;;;11.98;93.58;96116.69;5019682;28;20022;-59
2022/05/14 04:46:28;;;;;;;6.55;5.95;;;;;;;11.96;93.41;96118.66;5028255;28;20060;-59
2022/05/14 04:48:54;;;;;;;7.65;6.60;;;;;;;11.92;93.96;96125.19;5016986;28;20076;-58
2022/05/14 04:51:19;;;;;;;13.02;6.93;;;;;;;11.93;94.65;96126.00;5023314;28;20079;-59
2022/05/14 04:53:45;;;;;;;11.55;6.80;;;;;;;11.95;93.93;96122.25;5018974;28;20037;-58
2022/05/14 04:56:11;;;;;;;6.82;6.22;;;;;;;11.98;93.94;96129.88;5021335;28;20021;-59
2022/05/14 04:58:36;;;;;;;6.85;6.28;;;;;;;12.00;95.02;96132.41;5017009;28;20112;-59
2022/05/14 05:01:01;;;;;;;7.05;6.45;;;;;;;12.01;94.47;96127.00;5019336;28;20038;-58
2022/05/14 05:03:28;;;;;;;8.60;6.65;;;;;;;12.03;94.01;96134.78;5017831;28;20124;-58
2022/05/14 05:05:58;;;;;;;6.55;5.90;;;;;;;12.10;93.66;96137.72;5020268;28;20093;-58
2022/05/14 05:08:26;;;;;;;18.08;6.28;;;;;;;12.16;93.30;96139.78;5021801;28;20025;-59
2022/05/14 05:10:52;;;;;;;6.80;6.30;;;;;;;12.19;93.24;96139.50;5020343;28;20034;-59
2022/05/14 05:13:23;;;;;;;6.88;6.25;;;;;;;12.20;95.03;96149.06;5018743;28;20110;-58
2022/05/14 05:15:49;;;;;;;6.93;6.22;;;;;;;12.21;94.05;96148.09;5022054;28;20025;-58
2022/05/14 05:18:16;;;;;;;7.43;6.75;;;;;;;12.27;94.66;96146.72;5013946;28;20033;-58
2022/05/14 05:20:44;;;;;;;6.90;6.40;;;;;;;12.35;93.90;96144.19;5019293;28;20052;-59
2022/05/14 05:23:14;;;;;;;8.88;6.80;;;;;;;12.49;93.48;96147.34;5016923;28;20108;-59
2022/05/14 05:25:39;;;;;;;6.82;6.22;;;;;;;12.64;92.44;96147.72;5013284;28;20038;-59
2022/05/14 05:28:05;;;;;;;10.77;6.55;;;;;;;12.85;90.79;96150.19;5018687;28;20587;-58
2022/05/14 05:30:30;;;;;;;6.55;5.95;;;;;;;13.00;89.88;96155.81;5026566;28;20025;-59
2022/05/14 05:32:56;;;;;;;30.50;8.02;;;;;;;13.19;89.99;96154.88;5017303;28;20092;-58
2022/05/14 05:35:22;;;;;;;14.88;6.70;;;;;;;13.15;90.35;96162.31;5015907;28;20037;-58
2022/05/14 05:37:47;;;;;;;6.72;6.03;;;;;;;13.20;90.43;96158.38;5018408;28;20046;-59
2022/05/14 05:40:14;;;;;;;7.75;6.20;;;;;;;13.16;91.20;96158.69;5022079;28;20029;-58
2022/05/14 05:42:40;;;;;;;9.63;7.22;;;;;;;13.21;91.02;96160.03;5022923;28;20425;-59
2022/05/14 05:45:07;;;;;;;8.05;5.55;;;;;;;13.29;90.65;96168.06;5030551;28;20025;-59
2022/05/14 05:47:32;;;;;;;6.70;6.00;;;;;;;13.30;90.66;96165.28;5024101;28;20126;-58
2022/05/14 05:49:57;;;;;;;8.38;5.80;;;;;;;13.42;89.93;96149.19;5024986;28;20131;-59
2022/05/14 05:52:24;;;;;;;5.60;5.10;;;;;;;13.58;88.69;96148.56;5025254;28;20053;-58
2022/05/14 05:57:36;;;;;;;7.38;6.60;;;;;;;13.90;87.03;96155.19;5028450;28;20063;-58
2022/05/14 06:00:11;;;;;;;7.03;5.57;;;;;;;14.04;86.49;96151.16;5024637;28;20045;-58
2022/05/14 06:02:37;;;;;;;5.88;5.35;;;;;;;14.24;85.28;96151.81;5022446;28;20460;-58
2022/05/14 06:05:04;;;;;;;6.88;5.40;;;;;;;14.43;84.17;96150.81;5027299;28;20069;-58
2022/05/14 06:07:29;;;;;;;6.38;5.20;;;;;;;14.70;83.08;96153.44;5026285;28;20732;-58
2022/05/14 06:09:55;;;;;;;5.75;5.20;;;;;;;14.97;82.12;96146.34;5026896;28;20032;-58
2022/05/14 06:12:20;;;;;;;5.50;5.05;;;;;;;15.25;79.71;96148.78;5024638;28;20029;-59
2022/05/14 06:14:47;;;;;;;5.65;4.78;;;;;;;15.56;78.54;96145.56;5028184;28;20033;-59
2022/05/14 06:17:12;;;;;;;5.60;5.10;;;;;;;15.89;76.47;96145.66;5019584;28;20048;-58
2022/05/14 06:19:38;;;;;;;7.85;5.05;;;;;;;16.25;75.67;96145.34;5014032;28;20486;-59
2022/05/14 06:22:04;;;;;;;9.80;5.00;;;;;;;16.44;74.18;96152.13;5016276;28;20032;-59
2022/05/14 06:24:30;;;;;;;5.18;4.68;;;;;;;16.59;73.84;96144.31;5016540;28;20521;-59
2022/05/14 06:26:56;;;;;;;5.32;4.50;;;;;;;17.07;72.71;96143.56;5017799;28;20113;-59
2022/05/14 06:29:21;;;;;;;7.80;4.55;;;;;;;17.57;71.34;96140.66;5017904;28;20140;-59
2022/05/14 06:31:47;;;;;;;4.70;4.30;;;;;;;17.89;70.25;96133.50;5015716;28;20055;-59
2022/05/14 06:34:13;;;;;;;5.75;4.63;;;;;;;18.21;68.12;96136.13;5014570;28;20026;-58
2022/05/14 06:36:38;;;;;;;5.75;4.43;;;;;;;18.44;67.38;96136.91;5014540;28;20035;-59
2022/05/14 06:39:04;;;;;;;8.88;4.28;;;;;;;18.57;65.53;96135.47;5013719;28;20029;-59
2022/05/14 06:41:30;;;;;;;4.85;4.03;;;;;;;18.80;63.17;96130.06;5016818;28;20503;-59
2022/05/14 06:43:56;;;;;;;8.18;3.67;;;;;;;19.05;61.57;96129.81;5017017;28;20033;-59
2022/05/14 06:46:21;;;;;;;4.88;4.30;;;;;;;19.53;61.59;96125.88;5016492;28;20041;-58
2022/05/14 06:48:47;;;;;;;4.18;3.83;;;;;;;19.69;61.15;96125.66;5019688;28;20026;-59
2022/05/14 06:51:20;;;;;;;7.03;4.35;;;;;;;19.90;59.72;96134.72;5015740;28;20104;-60
2022/05/14 06:53:47;;;;;;;5.25;3.90;;;;;;;20.42;59.45;96126.56;5020055;28;20497;-59
2022/05/14 06:56:14;;;;;;;6.88;3.95;;;;;;;20.58;58.59;96128.16;5021251;28;20030;-59
2022/05/14 06:58:41;;;;;;;5.35;3.92;;;;;;;20.78;56.97;96130.09;5017564;28;20040;-60
2022/05/14 07:01:08;;;;;;;7.72;3.70;;;;;;;20.98;55.96;96131.09;5022634;28;20032;-59
2022/05/14 07:06:40;;;;;;;5.38;3.75;;;;;;;21.32;52.64;96132.09;5018199;28;20523;-59
2022/05/14 07:09:15;;;;;;;4.03;3.70;;;;;;;21.64;54.45;96126.25;5017478;28;20034;-58
2022/05/14 07:11:43;;;;;;;5.22;3.30;;;;;;;22.11;52.84;96115.66;5015998;28;20462;-60
2022/05/14 07:14:12;;;;;;;4.65;3.92;;;;;;;22.52;49.93;96116.53;5018121;28;20022;-59
2022/05/14 07:16:38;;;;;;;3.60;3.30;;;;;;;22.54;49.57;96109.09;5031525;28;20478;-60
2022/05/14 07:19:06;;;;;;;5.25;3.10;;;;;;;22.79;49.17;96113.81;5022566;28;20079;-58
2022/05/14 07:21:33;;;;;;;4.95;3.17;;;;;;;22.89;48.43;96106.16;5024113;28;20468;-58
2022/05/14 07:23:58;;;;;;;5.97;3.60;;;;;;;22.99;47.70;96102.19;5023157;28;20154;-58
2022/05/14 07:26:27;;;;;;;5.10;3.45;;;;;;;22.75;50.85;96105.34;5021382;28;20113;-59
2022/05/14 07:28:52;;;;;;;4.97;3.60;;;;;;;23.05;49.41;96095.97;5020541;28;20417;-59
2022/05/14 07:31:18;;;;;;;7.57;3.58;;;;;;;22.94;46.72;96096.66;5017926;28;20034;-59
2022/05/14 07:33:43;;;;;;;3.75;3.40;;;;;;;23.21;47.88;96094.72;5021638;28;20496;-58
2022/05/14 07:36:15;;;;;;;5.72;3.25;;;;;;;23.26;47.03;96096.78;5027565;28;20037;-58
2022/05/14 07:38:41;;;;;;;4.15;3.75;;;;;;;23.43;46.46;96095.25;5031362;28;20748;-58
2022/05/14 07:41:07;;;;;;;4.95;3.58;;;;;;;23.18;47.23;96084.38;5026493;28;20404;-58
2022/05/14 07:43:37;;;;;;;6.45;3.78;;;;;;;23.35;47.45;96081.25;5023187;28;20056;-58
2022/05/14 07:46:09;;;;;;;4.72;3.58;;;;;;;23.51;47.52;96077.22;5026705;28;20068;-58
2022/05/14 07:48:38;;;;;;;7.03;3.42;;;;;;;24.00;46.64;96073.03;5020188;28;20093;-58
2022/05/14 07:51:06;;;;;;;7.80;3.45;;;;;;;24.38;45.98;96075.84;5021529;28;20028;-58
2022/05/14 07:53:31;;;;;;;3.55;3.25;;;;;;;24.06;46.53;96073.22;5025684;28;20056;-58
2022/05/14 07:56:01;;;;;;;6.00;3.33;;;;;;;23.91;47.81;96079.69;5020323;28;20062;-58
2022/05/14 07:58:27;;;;;;;4.55;3.50;;;;;;;24.23;45.66;96070.81;5023513;28;20467;-58
2022/05/14 08:00:54;;;;;;;3.97;3.30;;;;;;;24.00;45.29;96066.81;5015844;28;20046;-58
2022/05/14 08:03:23;;;;;;;5.60;3.17;;;;;;;24.05;43.60;96075.06;5023936;28;20056;-58
2022/05/14 08:05:49;;;;;;;4.05;3.22;;;;;;;24.07;44.73;96072.97;5018009;28;20132;-58
2022/05/14 08:08:15;;;;;;;5.13;3.20;;;;;;;24.20;45.37;96073.94;5020174;28;20163;-59
2022/05/14 08:10:40;;;;;;;4.13;3.55;;;;;;;24.70;43.38;96078.47;5028081;28;20022;-59
2022/05/14 08:13:06;;;;;;;4.80;3.40;;;;;;;24.26;44.01;96079.28;5025243;28;20512;-58
2022/05/14 08:15:31;;;;;;;6.30;3.38;;;;;;;24.89;43.12;96080.16;5026050;28;20543;-59
2022/05/14 08:17:57;;;;;;;6.03;3.45;;;;;;;24.66;44.09;96086.16;5023725;28;20416;-59
2022/05/14 08:20:23;;;;;;;5.22;3.65;;;;;;;25.03;43.16;96085.38;5021272;28;20100;-58
2022/05/14 08:25:33;;;;;;;4.35;3.60;;;;;;;24.66;43.90;96080.78;5022808;28;20091;-59
2022/05/14 08:27:58;;;;;;;6.20;4.05;;;;;;;25.30;41.66;96093.16;5013240;28;20033;-59
2022/05/14 08:30:32;;;;;;;5.65;3.92;;;;;;;25.25;42.38;96095.72;5028289;28;20100;-58
2022/05/14 08:32:57;;;;;;;7.82;4.10;;;;;;;26.09;40.98;96094.22;5024045;28;20100;-58
2022/05/14 08:35:23;;;;;;;8.02;4.00;;;;;;;26.26;41.31;96097.91;5024756;28;20025;-58
2022/05/14 08:37:50;;;;;;;4.82;3.42;;;;;;;25.84;39.36;96101.41;5019150;28;20080;-59
2022/05/14 08:40:20;;;;;;;4.57;3.28;;;;;;;25.60;41.16;96105.88;5023086;28;20064;-58
2022/05/14 08:42:54;;;;;;;5.10;3.75;;;;;;;25.54;39.77;96106.81;5017467;28;20108;-58
2022/05/14 08:45:23;;;;;;;3.83;3.30;;;;;;;26.38;39.55;96105.19;5027064;28;20445;-58
2022/05/14 08:48:14;;;;;;;4.88;3.63;;;;;;;26.66;38.12;96101.00;5022201;28;20037;-58
2022/05/14 08:50:41;;;;;;;4.82;3.85;;;;;;;25.98;39.36;96104.75;5019835;28;20034;-59
2022/05/14 08:53:12;;;;;;;4.82;3.97;;;;;;;26.25;40.52;96104.38;5023951;28;20033;-58
2022/05/14 08:56:07;;;;;;;3.97;3.40;;;;;;;26.69;38.82;96111.34;5019662;28;20030;-58
2022/05/14 08:59:08;;;;;;;6.78;3.60;;;;;;;26.84;37.98;96114.38;5023872;28;20036;-58
2022/05/14 09:01:40;;;;;;;4.93;3.40;;;;;;;26.79;37.81;96110.75;5023753;28;20037;-58
2022/05/14 09:04:08;;;;;;;5.43;3.50;;;;;;;26.72;37.73;96116.25;5017481;28;20432;-58
2022/05/14 09:06:35;;;;;;;3.78;3.20;;;;;;;26.98;36.96;96114.16;5025261;28;20013;-58
2022/05/14 09:09:00;;;;;;;4.80;3.20;;;;;;;26.52;38.74;96117.44;5026267;28;20518;-59
2022/05/14 09:11:39;;;;;;;4.63;3.28;;;;;;;26.37;38.82;96114.34;5026762;28;20164;-59
2022/05/14 09:14:18;;;;;;;3.60;3.30;;;;;;;26.78;40.30;96106.41;5026273;28;20029;-59
2022/05/14 09:16:46;;;;;;;5.93;3.88;;;;;;;27.15;40.71;96111.56;5027290;28;20112;-58
2022/05/14 09:19:18;;;;;;;9.35;3.42;;;;;;;26.93;41.56;96105.97;5018515;28;20054;-58
2022/05/14 09:21:57;;;;;;;4.47;4.07;;;;;;;27.12;40.33;96107.47;5022431;28;20099;-59
2022/05/14 09:24:26;;;;;;;10.00;3.97;;;;;;;26.40;42.02;96113.88;5021479;28;20654;-58
2022/05/14 09:27:10;;;;;;;4.75;4.00;;;;;;;26.03;42.54;96109.44;5026733;28;20087;-59
2022/05/14 09:29:40;;;;;;;4.55;4.15;;;;;;;25.93;41.77;96104.59;5017443;28;20037;-58
2022/05/14 09:32:21;;;;;;;6.53;4.10;;;;;;;25.87;43.20;96100.13;5017694;28;20025;-58
2022/05/14 09:34:48;;;;;;;8.43;4.07;;;;;;;25.99;43.92;96100.16;5022041;28;20029;-58
2022/05/14 09:37:18;;;;;;;6.22;4.32;;;;;;;26.54;40.62;96090.22;5020907;28;20025;-57
2022/05/14 09:40:00;;;;;;;5.38;4.30;;;;;;;26.00;41.13;96085.63;5022075;28;20025;-58
2022/05/14 09:42:35;;;;;;;11.30;6.25;;;;;;;26.11;42.00;96089.41;5023905;28;20022;-58
2022/05/14 09:45:00;;;;;;;7.95;5.35;;;;;;;26.34;42.83;96087.81;5023819;28;20029;-58
2022/05/14 09:47:30;;;;;;;6.78;4.95;;;;;;;25.83;43.69;96082.78;5020141;28;20069;-58
2022/05/14 09:50:02;;;;;;;5.00;4.35;;;;;;;26.15;41.73;96077.94;5025047;28;20092;-58
2022/05/14 09:52:32;;;;;;;6.90;4.40;;;;;;;25.98;44.02;96071.53;5019912;28;20022;-58
2022/05/14 09:54:59;;;;;;;5.15;4.18;;;;;;;27.00;42.00;96066.97;5018746;28;20112;-59
2022/05/14 09:57:37;;;;;;;7.60;4.22;;;;;;;26.69;40.26;96068.94;5016653;28;20026;-59
2022/05/14 10:00:12;;;;;;;5.45;4.32;;;;;;;27.05;40.67;96057.31;5020227;28;20100;-58
2022/05/14 10:02:49;;;;;;;5.57;4.15;;;;;;;26.76;40.56;96062.63;5021348;28;20029;-58
2022/05/14 10:05:36;;;;;;;8.98;4.55;;;;;;;26.41;41.48;96051.59;5019560;28;20104;-58
2022/05/14 10:08:14;;;;;;;4.82;4.32;;;;;;;26.48;43.39;96059.56;5020663;28;20031;-58
2022/05/14 10:11:06;;;;;;;4.22;3.65;;;;;;;27.14;40.37;96050.47;5023151;28;21785;-58
2022/05/14 10:13:47;;;;;;;7.43;3.97;;;;;;;27.27;40.17;96049.38;5022128;28;20400;-59
2022/05/14 10:16:21;;;;;;;5.47;4.97;;;;;;;27.16;40.50;96042.94;5019000;28;20488;-59
2022/05/14 10:19:22;;;;;;;4.28;3.88;;;;;;;27.46;38.89;96044.63;5022505;28;20021;-58
2022/05/14 10:22:20;;;;;;;8.80;4.20;;;;;;;27.57;39.19;96048.38;5026698;28;20040;-59
2022/05/14 10:28:31;;;;;;;4.03;3.63;;;;;;;27.79;39.75;96032.25;5020557;28;20812;-59
2022/05/14 10:31:01;;;;;;;4.93;3.70;;;;;;;27.56;41.15;96034.03;5025091;28;20038;-58
2022/05/14 10:33:29;;;;;;;8.30;3.30;;;;;;;28.63;39.16;96035.25;5024377;28;20039;-59
2022/05/14 10:36:09;;;;;;;5.75;3.63;;;;;;;28.29;39.89;96025.28;5027363;28;20441;-59
2022/05/14 10:38:45;;;;;;;8.13;3.92;;;;;;;28.33;39.61;96031.03;5025559;28;20049;-58
2022/05/14 10:41:11;;;;;;;7.72;3.88;;;;;;;28.78;38.66;96028.41;5028830;28;20041;-59
2022/05/14 10:44:01;;;;;;;4.75;3.65;;;;;;;28.29;38.59;96027.97;5026937;28;20030;-58
2022/05/14 10:46:28;;;;;;;3.75;3.42;;;;;;;28.35;38.77;96028.88;5022525;28;20042;-58
2022/05/14 10:49:03;;;;;;;3.72;3.40;;;;;;;28.59;37.70;96026.78;5025495;28;20044;-59
2022/05/14 10:51:32;;;;;;;4.47;3.28;;;;;;;28.72;37.93;96036.44;5025047;28;20539;-59
2022/05/14 10:54:02;;;;;;;4.07;3.22;;;;;;;28.12;39.83;96025.25;5024383;28;20452;-59
2022/05/14 10:56:29;;;;;;;6.95;3.17;;;;;;;28.80;37.04;96029.81;5022713;28;20374;-59
2022/05/14 10:59:07;;;;;;;5.25;2.83;;;;;;;28.87;35.81;96027.75;5025124;28;20033;-59
2022/05/14 11:01:46;;;;;;;3.70;3.13;;;;;;;29.05;36.43;96019.56;5026099;28;20029;-58
2022/05/14 11:04:37;;;;;;;9.02;3.30;;;;;;;28.89;35.45;96019.34;5022052;28;20021;-59
2022/05/14 11:07:06;;;;;;;4.25;2.95;;;;;;;29.30;35.83;96021.75;5018784;28;20034;-59
2022/05/14 11:09:43;;;;;;;3.95;3.40;;;;;;;29.47;36.70;96016.28;5030722;28;20409;-59
2022/05/14 11:12:11;;;;;;;4.85;3.05;;;;;;;29.34;35.25;96012.03;5024890;28;20091;-58
2022/05/14 11:14:47;;;;;;;4.35;3.53;;;;;;;29.24;34.60;96020.03;5023401;28;20117;-59
2022/05/14 11:17:34;;;;;;;4.05;2.60;;;;;;;30.35;31.32;96008.94;5023894;28;20029;-58
2022/05/14 11:20:02;;;;;;;3.90;2.80;;;;;;;30.33;31.24;96005.66;5019237;28;20405;-58
2022/05/14 11:22:33;;;;;;;2.88;2.50;;;;;;;30.10;30.73;96006.81;5022171;28;20084;-59
2022/05/14 11:25:22;;;;;;;4.00;2.55;;;;;;;29.66;31.09;96007.78;5025757;28;20034;-58
2022/05/14 11:28:08;;;;;;;3.45;2.45;;;;;;;28.74;31.36;96007.25;5015724;28;20030;-58
2022/05/14 11:30:45;;;;;;;6.30;2.80;;;;;;;29.38;31.21;96007.75;5019183;28;20022;-58
2022/05/14 11:33:27;;;;;;;3.10;2.80;;;;;;;29.13;32.43;96000.97;5022217;28;20034;-58
2022/05/14 11:36:15;;;;;;;3.42;3.13;;;;;;;28.74;33.01;95987.44;5021487;28;20025;-58
2022/05/14 11:38:44;;;;;;;3.75;3.00;;;;;;;29.29;33.73;95993.00;5020048;28;20075;-58
2022/05/14 11:41:27;;;;;;;2.97;2.75;;;;;;;29.90;32.23;95981.13;5028350;28;20025;-58
2022/05/14 11:43:53;;;;;;;3.33;3.03;;;;;;;30.81;32.86;95980.41;5024426;28;20022;-59
2022/05/14 11:46:51;;;;;;;3.63;3.33;;;;;;;30.08;35.52;95981.84;5029182;28;20041;-59
2022/05/14 11:49:25;;;;;;;4.05;2.80;;;;;;;30.29;34.57;95972.78;4994295;28;20124;-58
2022/05/14 11:52:13;;;;;;;;;;;;;;;30.94;33.52;95973.69;5024268;28;20495;-58
2022/05/14 11:55:10;;;;;;;3.95;3.20;;;;;;;31.08;32.84;95977.53;5020827;28;19913;-58
2022/05/14 11:57:49;;;;;;;3.60;3.30;;;;;;;30.89;32.70;95962.78;5027874;28;20620;-58
2022/05/14 12:00:41;;;;;;;5.03;3.45;;;;;;;30.86;33.50;95958.69;5020061;28;20042;-58